createdAt,value
2023-05-19T00:02:09.417Z,2.53
2023-05-19T00:04:40.694Z,2.10
2023-05-19T00:07:12.717Z,2.35
2023-05-19T00:09:45.098Z,1.90
2023-05-19T00:12:15.026Z,2.33
2023-05-19T00:14:45.805Z,2.10
2023-05-19T00:17:17.110Z,2.22
2023-05-19T00:19:45.990Z,1.88
2023-05-19T00:22:14.601Z,2.45
2023-05-19T00:24:43.088Z,2.20
2023-05-19T00:27:11.409Z,2.13
2023-05-19T00:29:39.818Z,1.77
2023-05-19T00:32:10.236Z,1.90
2023-05-19T00:34:38.557Z,2.35
2023-05-19T00:37:06.932Z,1.70
2023-05-19T00:39:35.458Z,1.75
2023-05-19T00:42:05.841Z,1.88
2023-05-19T00:44:34.135Z,2.30
2023-05-19T00:47:02.783Z,1.80
2023-05-19T00:49:32.376Z,2.45
2023-05-19T00:52:02.331Z,1.70
2023-05-19T00:54:31.229Z,2.30
2023-05-19T00:57:01.322Z,2.30
2023-05-19T00:59:30.176Z,2.88
2023-05-19T01:01:58.635Z,2.25
2023-05-19T01:04:27.216Z,2.03
2023-05-19T01:06:58.753Z,2.08
2023-05-19T01:09:27.108Z,2.40
2023-05-19T01:11:55.340Z,2.05
2023-05-19T01:14:23.855Z,2.03
2023-05-19T01:16:59.542Z,1.73
2023-05-19T01:19:57.505Z,2.50
2023-05-19T01:22:43.934Z,1.70
2023-05-19T01:25:43.630Z,1.90
2023-05-19T01:28:26.222Z,1.90
2023-05-19T01:30:57.129Z,1.90
2023-05-19T01:33:26.976Z,1.85
2023-05-19T01:35:56.543Z,2.00
2023-05-19T01:38:26.333Z,1.90
2023-05-19T01:40:55.846Z,1.70
2023-05-19T01:43:28.201Z,1.98
2023-05-19T01:45:58.984Z,1.50
2023-05-19T01:48:29.973Z,1.75
2023-05-19T01:50:58.305Z,1.88
2023-05-19T01:53:27.413Z,1.70
2023-05-19T01:55:57.883Z,2.22
2023-05-19T01:58:37.920Z,1.55
2023-05-19T02:01:18.301Z,1.95
2023-05-19T02:04:06.153Z,1.63
2023-05-19T02:06:42.883Z,1.70
2023-05-19T02:09:17.168Z,1.77
2023-05-19T02:11:51.582Z,1.80
2023-05-19T02:14:22.458Z,1.88
2023-05-19T02:16:52.753Z,1.90
2023-05-19T02:19:26.030Z,1.77
2023-05-19T02:21:57.518Z,2.13
2023-05-19T02:24:26.144Z,1.48
2023-05-19T02:26:55.525Z,2.00
2023-05-19T02:29:23.764Z,1.83
2023-05-19T02:31:53.882Z,2.00
2023-05-19T02:34:22.969Z,1.77
2023-05-19T02:36:51.695Z,1.92
2023-05-19T02:39:20.021Z,2.10
2023-05-19T02:41:48.285Z,2.97
2023-05-19T02:44:16.646Z,2.05
2023-05-19T02:46:45.894Z,1.80
2023-05-19T02:49:15.926Z,1.85
2023-05-19T02:51:44.607Z,1.77
2023-05-19T02:54:13.632Z,1.75
2023-05-19T02:56:42.260Z,1.70
2023-05-19T02:59:10.503Z,1.75
2023-05-19T03:01:40.545Z,1.77
2023-05-19T03:04:09.487Z,1.67
2023-05-19T03:06:39.457Z,1.73
2023-05-19T03:09:07.822Z,1.70
2023-05-19T03:11:36.221Z,1.45
2023-05-19T03:14:04.589Z,1.70
2023-05-19T03:16:34.083Z,2.10
2023-05-19T03:19:02.439Z,1.77
2023-05-19T03:21:32.141Z,2.10
2023-05-19T03:24:01.856Z,1.98
2023-05-19T03:26:30.545Z,1.73
2023-05-19T03:28:58.755Z,2.00
2023-05-19T03:31:27.856Z,2.35
2023-05-19T03:33:57.868Z,2.28
2023-05-19T03:36:26.290Z,1.95
2023-05-19T03:38:54.650Z,3.30
2023-05-19T03:41:24.374Z,1.98
2023-05-19T03:43:52.672Z,1.77
2023-05-19T03:46:21.150Z,2.03
2023-05-19T03:48:52.578Z,2.30
2023-05-19T03:51:20.898Z,1.65
2023-05-19T03:53:49.584Z,2.03
2023-05-19T03:56:23.128Z,2.22
2023-05-19T03:58:54.806Z,2.17
2023-05-19T04:01:23.363Z,2.58
2023-05-19T04:03:52.223Z,2.15
2023-05-19T04:06:21.222Z,1.65
2023-05-19T04:08:49.494Z,1.60
2023-05-19T04:11:19.980Z,2.03
2023-05-19T04:13:48.500Z,1.90
2023-05-19T04:16:19.899Z,2.00
2023-05-19T04:18:48.239Z,2.38
2023-05-19T04:21:16.487Z,2.28
2023-05-19T04:23:44.734Z,1.77
2023-05-19T04:26:14.783Z,2.13
2023-05-19T04:28:44.721Z,2.10
2023-05-19T04:31:14.358Z,2.40
2023-05-19T04:33:43.975Z,1.75
2023-05-19T04:36:13.792Z,2.22
2023-05-19T04:38:43.548Z,2.35
2023-05-19T04:41:12.177Z,2.55
2023-05-19T04:43:42.009Z,2.67
2023-05-19T04:46:13.811Z,2.15
2023-05-19T04:48:44.053Z,2.67
2023-05-19T04:51:14.203Z,2.58
2023-05-19T04:53:43.677Z,3.55
2023-05-19T04:56:15.178Z,2.80
2023-05-19T04:58:46.648Z,3.13
2023-05-19T05:01:15.828Z,2.80
2023-05-19T05:03:46.097Z,2.58
2023-05-19T05:06:15.170Z,2.50
2023-05-19T05:08:43.979Z,2.25
2023-05-19T05:11:13.030Z,2.70
2023-05-19T05:13:42.059Z,2.67
2023-05-19T05:16:11.604Z,2.00
2023-05-19T05:18:42.174Z,2.70
2023-05-19T05:21:14.990Z,2.45
2023-05-19T05:23:43.837Z,2.08
2023-05-19T05:26:18.537Z,2.35
2023-05-19T05:28:48.787Z,1.80
2023-05-19T05:31:17.254Z,2.25
2023-05-19T05:33:45.788Z,1.90
2023-05-19T05:36:15.525Z,2.30
2023-05-19T05:38:43.808Z,2.38
2023-05-19T05:41:12.125Z,4.22
2023-05-19T05:43:40.551Z,2.22
2023-05-19T05:46:09.036Z,2.35
2023-05-19T05:48:37.970Z,2.33
2023-05-19T05:51:07.571Z,2.42
2023-05-19T05:53:43.547Z,2.30
2023-05-19T05:56:13.658Z,2.35
2023-05-19T05:58:42.511Z,2.45
2023-05-19T06:01:11.570Z,2.60
2023-05-19T06:03:41.042Z,2.33
2023-05-19T06:06:10.221Z,2.40
2023-05-19T06:08:43.977Z,2.28
2023-05-19T06:11:12.331Z,2.08
2023-05-19T06:13:41.411Z,2.63
2023-05-19T06:16:10.591Z,1.95
2023-05-19T06:18:44.803Z,2.28
2023-05-19T06:21:13.694Z,2.35
2023-05-19T06:23:43.978Z,1.98
2023-05-19T06:26:12.228Z,2.10
2023-05-19T06:28:41.121Z,2.80
2023-05-19T06:31:09.543Z,1.88
2023-05-19T06:33:38.198Z,2.30
2023-05-19T06:36:08.469Z,2.00
2023-05-19T06:38:36.809Z,1.90
2023-05-19T06:41:07.136Z,2.08
2023-05-19T06:43:35.576Z,2.13
2023-05-19T06:46:03.919Z,1.63
2023-05-19T06:48:32.132Z,2.30
2023-05-19T06:51:00.332Z,2.22
2023-05-19T06:53:28.724Z,2.00
2023-05-19T06:55:59.729Z,2.10
2023-05-19T06:58:30.096Z,2.20
2023-05-19T07:00:58.376Z,2.00
2023-05-19T07:03:27.302Z,2.03
2023-05-19T07:05:56.305Z,2.25
2023-05-19T07:08:24.762Z,1.95
2023-05-19T07:10:53.326Z,3.65
2023-05-19T07:13:21.809Z,2.05
2023-05-19T07:15:52.437Z,2.25
2023-05-19T07:18:20.910Z,2.17
2023-05-19T07:20:49.326Z,2.90
2023-05-19T07:23:17.639Z,1.88
2023-05-19T07:25:45.887Z,1.70
2023-05-19T07:28:14.224Z,2.30
2023-05-19T07:30:45.374Z,2.17
2023-05-19T07:33:15.598Z,1.92
2023-05-19T07:35:44.554Z,1.92
2023-05-19T07:38:13.194Z,2.10
2023-05-19T07:40:41.879Z,1.80
2023-05-19T07:43:11.349Z,2.15
2023-05-19T07:45:40.107Z,2.03
2023-05-19T07:48:09.128Z,2.35
2023-05-19T07:50:38.747Z,2.00
2023-05-19T07:53:07.122Z,2.85
2023-05-19T07:55:35.429Z,1.88
2023-05-19T07:58:03.688Z,2.40
2023-05-19T08:00:32.306Z,2.13
2023-05-19T08:03:01.801Z,2.10
2023-05-19T08:05:30.944Z,2.30
2023-05-19T08:08:00.649Z,2.17
2023-05-19T08:10:29.359Z,2.45
2023-05-19T08:12:57.657Z,2.08
2023-05-19T08:15:26.436Z,2.38
2023-05-19T08:17:54.800Z,2.05
2023-05-19T08:20:24.401Z,3.00
2023-05-19T08:22:52.684Z,2.28
2023-05-19T08:25:22.684Z,2.22
2023-05-19T08:27:51.350Z,2.17
2023-05-19T08:30:20.039Z,2.17
2023-05-19T08:32:48.914Z,1.92
2023-05-19T08:35:17.326Z,2.50
2023-05-19T08:37:45.981Z,2.30
2023-05-19T08:40:18.407Z,2.42
2023-05-19T08:42:48.647Z,2.20
2023-05-19T08:45:17.543Z,2.00
2023-05-19T08:47:47.592Z,1.92
2023-05-19T08:50:21.376Z,1.92
2023-05-19T08:52:53.661Z,1.80
2023-05-19T08:55:34.062Z,1.75
2023-05-19T08:58:05.662Z,1.90
2023-05-19T09:00:34.898Z,1.80
2023-05-19T09:03:17.509Z,1.90
2023-05-19T09:05:47.470Z,2.00
2023-05-19T09:08:16.241Z,1.88
2023-05-19T09:10:44.508Z,2.13
2023-05-19T09:13:14.140Z,2.00
2023-05-19T09:15:43.532Z,1.70
2023-05-19T09:18:13.674Z,1.77
2023-05-19T09:20:43.698Z,2.10
2023-05-19T09:23:15.117Z,1.85
2023-05-19T09:25:49.841Z,2.15
2023-05-19T09:28:26.549Z,2.10
2023-05-19T09:31:02.163Z,2.15
2023-05-19T09:33:31.082Z,1.90
2023-05-19T09:35:59.554Z,2.22
2023-05-19T09:38:28.195Z,2.42
2023-05-19T09:40:58.388Z,2.17
2023-05-19T09:43:30.242Z,2.45
2023-05-19T09:46:01.991Z,1.85
2023-05-19T09:48:30.669Z,2.03
2023-05-19T09:50:59.298Z,1.88
2023-05-19T09:53:27.775Z,2.28
2023-05-19T09:55:58.775Z,2.03
2023-05-19T09:58:34.718Z,1.98
2023-05-19T10:01:03.730Z,1.88
2023-05-19T10:03:33.716Z,1.67
2023-05-19T10:06:02.702Z,1.70
2023-05-19T10:08:32.079Z,1.48
2023-05-19T10:11:01.251Z,1.90
2023-05-19T10:13:32.083Z,1.58
2023-05-19T10:16:01.670Z,1.73
2023-05-19T10:18:31.890Z,1.70
2023-05-19T10:21:01.540Z,1.42
2023-05-19T10:23:29.944Z,1.50
2023-05-19T10:26:01.352Z,1.50
2023-05-19T10:28:38.106Z,1.77
2023-05-19T10:31:09.042Z,1.88
2023-05-19T10:33:48.275Z,2.38
2023-05-19T10:36:28.773Z,1.90
2023-05-19T10:39:03.885Z,1.60
2023-05-19T10:41:45.058Z,3.25
2023-05-19T10:44:29.320Z,1.40
2023-05-19T10:47:00.558Z,1.58
2023-05-19T10:49:29.101Z,1.38
2023-05-19T10:51:57.947Z,1.55
2023-05-19T10:54:43.352Z,1.55
2023-05-19T10:57:16.545Z,1.50
2023-05-19T10:59:47.137Z,1.60
2023-05-19T11:02:41.138Z,1.58
2023-05-19T11:05:11.368Z,1.60
2023-05-19T11:07:43.468Z,1.52
2023-05-19T11:10:12.508Z,1.95
2023-05-19T11:12:46.534Z,1.55
2023-05-19T11:15:17.543Z,1.55
2023-05-19T11:17:49.488Z,1.42
2023-05-19T11:20:25.285Z,1.45
2023-05-19T11:23:07.516Z,1.40
2023-05-19T11:25:43.831Z,1.60
2023-05-19T11:28:14.259Z,1.60
2023-05-19T11:30:45.560Z,1.40
2023-05-19T11:33:14.821Z,1.40
2023-05-19T11:35:44.802Z,1.10
2023-05-19T11:38:14.719Z,1.95
2023-05-19T11:40:43.425Z,1.73
2023-05-19T11:43:12.333Z,1.40
2023-05-19T11:45:40.725Z,1.98
2023-05-19T11:48:12.813Z,3.40
2023-05-19T11:50:43.955Z,2.03
2023-05-19T11:53:14.336Z,1.50
2023-05-19T11:55:47.846Z,1.38
2023-05-19T11:58:17.334Z,1.40
2023-05-19T12:00:47.683Z,1.45
2023-05-19T12:03:22.281Z,1.75
2023-05-19T12:05:51.129Z,1.70
2023-05-19T12:08:19.617Z,2.13
2023-05-19T12:10:50.849Z,1.35
2023-05-19T12:13:20.986Z,1.45
2023-05-19T12:15:51.962Z,1.45
2023-05-19T12:18:21.921Z,1.60
2023-05-19T12:20:50.292Z,1.55
2023-05-19T12:23:18.708Z,1.40
2023-05-19T12:25:47.085Z,1.70
2023-05-19T12:28:17.450Z,1.38
2023-05-19T12:30:52.075Z,1.20
2023-05-19T12:33:24.347Z,1.42
2023-05-19T12:35:53.067Z,2.58
2023-05-19T12:38:22.198Z,1.52
2023-05-19T12:40:51.480Z,1.67
2023-05-19T12:43:23.014Z,1.30
2023-05-19T12:45:51.357Z,1.92
2023-05-19T12:48:42.238Z,1.83
2023-05-19T12:51:11.638Z,1.50
2023-05-19T12:53:40.207Z,1.80
2023-05-19T12:56:13.948Z,1.40
2023-05-19T12:58:42.635Z,1.63
2023-05-19T13:01:17.709Z,1.30
2023-05-19T13:03:48.625Z,1.38
2023-05-19T13:06:17.321Z,1.58
2023-05-19T13:08:47.971Z,1.30
2023-05-19T13:11:16.840Z,1.58
2023-05-19T13:13:45.780Z,1.48
2023-05-19T13:16:14.835Z,1.65
2023-05-19T13:18:43.254Z,1.08
2023-05-19T13:21:13.505Z,1.08
2023-05-19T13:23:41.793Z,1.38
2023-05-19T13:26:12.671Z,1.45
2023-05-19T13:28:41.027Z,1.60
2023-05-19T13:31:09.283Z,1.30
2023-05-19T13:33:37.676Z,1.38
2023-05-19T13:36:07.099Z,1.70
2023-05-19T13:38:36.864Z,1.40
2023-05-19T13:41:05.177Z,1.50
2023-05-19T13:43:33.513Z,1.60
2023-05-19T13:46:01.770Z,1.58
2023-05-19T13:48:30.073Z,1.30
2023-05-19T13:50:58.276Z,1.45
2023-05-19T13:53:26.581Z,1.50
2023-05-19T13:55:56.292Z,1.27
2023-05-19T13:58:24.781Z,1.55
2023-05-19T14:00:54.868Z,1.40
2023-05-19T14:03:23.481Z,1.50
2023-05-19T14:05:52.242Z,1.38
2023-05-19T14:08:20.961Z,1.48
2023-05-19T14:10:49.400Z,1.40
2023-05-19T14:13:31.997Z,1.80
2023-05-19T14:16:03.313Z,1.30
2023-05-19T14:18:32.492Z,1.67
2023-05-19T14:21:00.753Z,1.75
2023-05-19T14:23:30.310Z,1.60
2023-05-19T14:25:58.943Z,1.35
2023-05-19T14:28:28.862Z,1.60
2023-05-19T14:30:57.137Z,1.48
2023-05-19T14:33:25.533Z,1.30
2023-05-19T14:35:55.337Z,1.30
2023-05-19T14:38:23.623Z,1.50
2023-05-19T14:40:52.943Z,1.75
2023-05-19T14:43:21.273Z,1.80
2023-05-19T14:45:51.512Z,1.52
2023-05-19T14:48:19.786Z,1.55
2023-05-19T14:50:49.186Z,1.30
2023-05-19T14:53:18.207Z,1.25
2023-05-19T14:55:48.834Z,1.50
2023-05-19T14:58:28.455Z,1.80
2023-05-19T15:01:00.650Z,1.40
2023-05-19T15:03:28.958Z,1.45
2023-05-19T15:05:57.350Z,1.95
2023-05-19T15:08:25.692Z,1.70
2023-05-19T15:10:53.952Z,1.55
2023-05-19T15:13:22.818Z,1.35
2023-05-19T15:16:08.222Z,1.75
2023-05-19T15:18:45.817Z,1.50
2023-05-19T15:21:14.327Z,1.60
2023-05-19T15:23:42.659Z,1.85
2023-05-19T15:26:11.004Z,1.48
2023-05-19T15:28:39.682Z,1.75
2023-05-19T15:31:08.275Z,1.60
2023-05-19T15:33:37.327Z,2.05
2023-05-19T15:36:07.965Z,1.50
2023-05-19T15:38:37.357Z,1.60
2023-05-19T15:41:09.733Z,1.40
2023-05-19T15:43:38.776Z,1.30
2023-05-19T15:46:07.160Z,1.50
2023-05-19T15:48:35.736Z,1.58
2023-05-19T15:51:04.222Z,1.48
2023-05-19T15:53:34.014Z,1.65
2023-05-19T15:56:03.963Z,1.50
2023-05-19T15:58:32.913Z,1.40
2023-05-19T16:01:01.825Z,1.45
2023-05-19T16:03:30.663Z,1.33
2023-05-19T16:05:59.206Z,1.25
2023-05-19T16:08:28.065Z,1.55
2023-05-19T16:10:57.758Z,1.50
2023-05-19T16:13:26.441Z,1.30
2023-05-19T16:15:54.782Z,1.30
2023-05-19T16:18:23.543Z,1.50
2023-05-19T16:20:52.408Z,1.30
2023-05-19T16:23:24.736Z,1.30
2023-05-19T16:25:54.906Z,1.55
2023-05-19T16:28:25.137Z,1.27
2023-05-19T16:30:53.906Z,1.27
2023-05-19T16:33:22.195Z,1.38
2023-05-19T16:35:50.565Z,1.33
2023-05-19T16:38:19.693Z,1.48
2023-05-19T16:40:48.154Z,1.27
2023-05-19T16:43:16.414Z,1.98
2023-05-19T16:45:46.648Z,0.90
2023-05-19T16:48:14.973Z,1.17
2023-05-19T16:50:43.487Z,1.27
2023-05-19T16:53:11.902Z,1.35
2023-05-19T16:55:40.267Z,1.20
2023-05-19T16:58:10.641Z,1.30
2023-05-19T17:00:39.088Z,1.35
2023-05-19T17:03:09.278Z,1.38
2023-05-19T17:05:39.050Z,1.50
2023-05-19T17:08:07.336Z,1.13
2023-05-19T17:10:36.110Z,1.02
2023-05-19T17:13:04.384Z,1.10
2023-05-19T17:15:33.170Z,1.42
2023-05-19T17:18:01.958Z,1.58
2023-05-19T17:20:32.117Z,1.17
2023-05-19T17:23:00.834Z,1.08
2023-05-19T17:25:29.177Z,1.23
2023-05-19T17:27:57.893Z,1.10
2023-05-19T17:30:26.295Z,2.00
2023-05-19T17:32:54.542Z,1.67
2023-05-19T17:35:28.156Z,1.70
2023-05-19T17:37:58.166Z,2.20
2023-05-19T17:40:26.805Z,1.65
2023-05-19T17:42:55.145Z,1.75
2023-05-19T17:45:23.980Z,1.30
2023-05-19T17:47:52.290Z,1.58
2023-05-19T17:50:21.154Z,1.38
2023-05-19T17:52:49.946Z,1.13
2023-05-19T17:55:20.961Z,1.25
2023-05-19T17:57:49.937Z,1.30
2023-05-19T18:00:19.105Z,1.38
2023-05-19T18:02:48.166Z,1.40
2023-05-19T18:05:17.433Z,1.50
2023-05-19T18:07:45.854Z,1.70
2023-05-19T18:10:16.146Z,1.30
2023-05-19T18:12:46.103Z,1.38
2023-05-19T18:15:15.045Z,1.17
2023-05-19T18:17:43.403Z,1.50
2023-05-19T18:20:13.710Z,1.40
2023-05-19T18:22:42.171Z,1.55
2023-05-19T18:25:11.133Z,1.50
2023-05-19T18:27:39.914Z,3.35
2023-05-19T18:30:11.142Z,3.90
2023-05-19T18:32:39.507Z,1.70
2023-05-19T18:35:08.988Z,1.25
2023-05-19T18:37:37.270Z,1.55
2023-05-19T18:40:06.283Z,1.30
2023-05-19T18:42:34.928Z,1.17
2023-05-19T18:45:03.693Z,1.30
2023-05-19T18:47:33.436Z,1.60
2023-05-19T18:50:01.867Z,1.40
2023-05-19T18:52:31.334Z,1.60
2023-05-19T18:55:01.175Z,1.90
2023-05-19T18:57:29.583Z,1.52
2023-05-19T18:59:58.277Z,1.83
2023-05-19T19:02:26.871Z,2.70
2023-05-19T19:04:56.959Z,1.98
2023-05-19T19:07:26.731Z,2.10
2023-05-19T19:09:55.237Z,1.65
2023-05-19T19:12:24.098Z,2.00
2023-05-19T19:14:52.331Z,2.05
2023-05-19T19:17:20.823Z,2.58
2023-05-19T19:19:49.206Z,1.80
2023-05-19T19:22:19.044Z,1.63
2023-05-19T19:24:47.486Z,1.92
2023-05-19T19:27:17.564Z,1.63
2023-05-19T19:29:45.908Z,2.08
2023-05-19T19:32:14.990Z,1.50
2023-05-19T19:34:43.352Z,1.75
2023-05-19T19:37:11.759Z,1.70
2023-05-19T19:39:41.399Z,1.65
2023-05-19T19:42:09.700Z,2.30
2023-05-19T19:44:38.094Z,2.35
2023-05-19T19:47:07.692Z,2.85
2023-05-19T19:49:36.149Z,2.30
2023-05-19T19:52:04.940Z,2.30
2023-05-19T19:54:33.280Z,2.20
2023-05-19T19:57:02.922Z,1.42
2023-05-19T19:59:31.202Z,1.58
2023-05-19T20:01:59.527Z,1.65
2023-05-19T20:04:28.587Z,2.00
2023-05-19T20:06:56.846Z,1.67
2023-05-19T20:09:25.210Z,1.70
2023-05-19T20:11:53.477Z,1.55
2023-05-19T20:14:23.573Z,3.08
2023-05-19T20:16:52.402Z,4.68
2023-05-19T20:19:20.734Z,5.35
2023-05-19T20:21:49.068Z,4.47
2023-05-19T20:24:17.308Z,4.10
2023-05-19T20:26:45.976Z,3.20
2023-05-19T20:29:14.265Z,3.30
2023-05-19T20:31:45.424Z,2.08
2023-05-19T20:34:13.825Z,2.20
2023-05-19T20:36:42.149Z,1.75
2023-05-19T20:39:10.662Z,1.63
2023-05-19T20:41:38.885Z,1.98
2023-05-19T20:44:08.493Z,1.60
2023-05-19T20:46:37.002Z,1.60
2023-05-19T20:49:07.628Z,1.65
2023-05-19T20:51:36.060Z,1.73
2023-05-19T20:54:05.254Z,1.85
2023-05-19T20:56:33.474Z,1.90
2023-05-19T20:59:01.606Z,1.90
2023-05-19T21:01:30.668Z,1.95
2023-05-19T21:03:59.110Z,2.00
2023-05-19T21:06:28.680Z,1.80
2023-05-19T21:08:56.854Z,2.13
2023-05-19T21:11:25.058Z,2.20
2023-05-19T21:13:54.784Z,2.05
2023-05-19T21:16:23.092Z,2.47
2023-05-19T21:18:51.289Z,2.22
2023-05-19T21:21:19.809Z,2.00
2023-05-19T21:23:49.534Z,1.80
2023-05-19T21:26:17.831Z,2.10
2023-05-19T21:28:46.220Z,1.85
2023-05-19T21:31:14.530Z,1.90
2023-05-19T21:33:42.886Z,1.98
2023-05-19T21:36:11.394Z,2.20
2023-05-19T21:38:39.762Z,2.05
2023-05-19T21:41:09.457Z,2.30
2023-05-19T21:43:37.900Z,2.65
2023-05-19T21:46:06.322Z,2.42
2023-05-19T21:48:34.801Z,2.40
2023-05-19T21:51:03.766Z,2.90
2023-05-19T21:53:32.831Z,3.75
2023-05-19T21:56:01.237Z,3.13
2023-05-19T21:58:30.946Z,2.95
2023-05-19T22:01:00.484Z,2.53
2023-05-19T22:03:29.011Z,3.00
2023-05-19T22:05:57.951Z,2.58
2023-05-19T22:08:27.090Z,2.67
2023-05-19T22:10:55.399Z,2.65
2023-05-19T22:13:23.718Z,2.55
2023-05-19T22:15:53.356Z,2.90
2023-05-19T22:18:22.206Z,2.03
2023-05-19T22:20:50.482Z,2.63
2023-05-19T22:23:18.801Z,2.25
2023-05-19T22:25:47.035Z,2.10
2023-05-19T22:28:18.124Z,2.20
2023-05-19T22:30:46.684Z,2.30
2023-05-19T22:33:16.461Z,2.42
2023-05-19T22:35:45.199Z,1.75
2023-05-19T22:38:14.070Z,2.10
2023-05-19T22:40:42.378Z,2.10
2023-05-19T22:43:10.753Z,2.03
2023-05-19T22:45:39.153Z,2.20
2023-05-19T22:48:07.791Z,2.30
2023-05-19T22:50:37.509Z,2.22
2023-05-19T22:53:05.876Z,2.10
2023-05-19T22:55:34.865Z,2.20
2023-05-19T22:58:03.818Z,2.17
2023-05-19T23:00:32.177Z,2.38
2023-05-19T23:03:00.556Z,2.63
2023-05-19T23:05:29.183Z,2.67
2023-05-19T23:07:58.920Z,2.78
2023-05-19T23:10:27.171Z,2.33
2023-05-19T23:12:55.580Z,2.70
2023-05-19T23:15:23.912Z,2.50
2023-05-19T23:17:52.503Z,2.35
2023-05-19T23:20:20.822Z,2.40
2023-05-19T23:22:49.094Z,2.10
2023-05-19T23:25:19.276Z,2.25
2023-05-19T23:27:47.550Z,3.42
2023-05-19T23:30:15.936Z,2.30
2023-05-19T23:32:44.413Z,2.50
2023-05-19T23:35:14.103Z,2.50
2023-05-19T23:37:42.500Z,2.22
2023-05-19T23:40:11.448Z,2.47
2023-05-19T23:42:41.064Z,2.22
2023-05-19T23:45:10.122Z,2.50
2023-05-19T23:47:38.508Z,2.45
2023-05-19T23:50:07.402Z,2.20
2023-05-19T23:52:36.269Z,2.42
2023-05-19T23:55:04.731Z,2.67
2023-05-19T23:57:33.236Z,2.42
